createdAt,value
2023-05-11T00:00:27.029Z,1.95
2023-05-11T00:07:15.352Z,1.80
2023-05-11T00:09:42.852Z,1.35
2023-05-11T00:12:09.572Z,1.85
2023-05-11T00:14:40.156Z,1.83
2023-05-11T00:17:07.705Z,1.85
2023-05-11T00:19:34.400Z,1.50
2023-05-11T00:22:02.985Z,1.65
2023-05-11T00:24:31.301Z,1.25
2023-05-11T00:26:57.995Z,1.75
2023-05-11T00:34:17.197Z,1.60
2023-05-11T00:37:04.809Z,3.83
2023-05-11T00:39:52.183Z,1.55
2023-05-11T00:42:42.521Z,2.40
2023-05-11T00:45:16.000Z,2.10
2023-05-11T00:47:46.214Z,4.38
2023-05-11T00:50:19.333Z,1.70
2023-05-11T00:52:47.615Z,2.22
2023-05-11T00:55:16.371Z,2.63
2023-05-11T00:57:44.665Z,1.60
2023-05-11T01:00:13.103Z,2.15
2023-05-11T01:11:08.946Z,2.20
2023-05-11T01:13:43.011Z,2.20
2023-05-11T01:16:25.817Z,1.95
2023-05-11T01:19:00.845Z,3.40
2023-05-11T01:21:42.785Z,2.83
2023-05-11T01:24:39.933Z,2.97
2023-05-11T01:27:31.942Z,2.80
2023-05-11T01:29:58.588Z,2.88
2023-05-11T01:32:46.276Z,2.22
2023-05-11T01:35:20.865Z,2.13
2023-05-11T01:37:57.486Z,2.75
2023-05-11T01:40:27.783Z,3.10
2023-05-11T01:43:21.715Z,2.20
2023-05-11T01:46:11.797Z,2.17
2023-05-11T01:48:44.328Z,1.77
2023-05-11T01:51:13.023Z,1.63
2023-05-11T01:53:42.492Z,1.88
2023-05-11T01:56:39.335Z,1.70
2023-05-11T01:59:20.823Z,1.50
2023-05-11T02:06:41.212Z,0.95
2023-05-11T02:09:30.714Z,1.67
2023-05-11T02:12:21.381Z,1.55
2023-05-11T02:17:23.308Z,1.50
2023-05-11T02:22:22.004Z,1.15
2023-05-11T02:24:55.809Z,1.50
2023-05-11T02:27:22.710Z,2.33
2023-05-11T02:29:50.262Z,1.67
2023-05-11T02:32:20.805Z,1.40
2023-05-11T02:35:36.892Z,1.38
2023-05-11T02:42:25.505Z,1.52
2023-05-11T02:45:02.956Z,1.17
2023-05-11T02:47:34.236Z,1.38
2023-05-11T02:50:04.705Z,1.73
2023-05-11T02:52:33.332Z,1.77
2023-05-11T02:55:17.061Z,1.90
2023-05-11T02:57:46.300Z,2.97
2023-05-11T03:00:13.691Z,1.77
2023-05-11T03:02:40.915Z,1.45
2023-05-11T03:09:31.581Z,1.60
2023-05-11T03:12:19.747Z,1.50
2023-05-11T03:14:53.349Z,1.40
2023-05-11T03:17:24.296Z,1.55
2023-05-11T03:20:12.131Z,1.75
2023-05-11T03:23:00.757Z,1.60
2023-05-11T03:25:29.914Z,2.08
2023-05-11T03:27:59.773Z,1.38
2023-05-11T03:30:28.112Z,1.63
2023-05-11T03:32:55.444Z,1.67
2023-05-11T03:35:27.882Z,1.45
2023-05-11T03:47:10.974Z,2.53
2023-05-11T03:49:59.121Z,1.92
2023-05-11T03:52:40.735Z,1.45
2023-05-11T03:57:38.995Z,1.42
2023-05-11T04:00:08.581Z,2.78
2023-05-11T04:02:38.495Z,2.15
2023-05-11T04:10:07.050Z,1.40
2023-05-11T04:12:55.149Z,2.45
2023-05-11T04:15:22.886Z,2.70
2023-05-11T04:17:49.933Z,1.73
2023-05-11T04:20:17.402Z,2.15
2023-05-11T04:22:46.703Z,1.80
2023-05-11T04:25:15.522Z,2.20
2023-05-11T04:28:04.403Z,2.15
2023-05-11T04:30:33.914Z,2.58
2023-05-11T04:33:03.400Z,1.95
2023-05-11T04:35:30.151Z,2.35
2023-05-11T04:37:57.640Z,2.47
2023-05-11T04:40:28.044Z,2.58
2023-05-11T04:42:58.175Z,3.00
2023-05-11T04:45:25.616Z,2.30
2023-05-11T04:47:52.514Z,3.58
2023-05-11T04:50:20.829Z,2.50
2023-05-11T04:53:25.519Z,2.25
2023-05-11T04:59:53.415Z,1.83
2023-05-11T05:02:41.495Z,2.25
2023-05-11T05:05:44.995Z,1.95
2023-05-11T05:08:12.293Z,4.38
2023-05-11T05:10:39.864Z,3.03
2023-05-11T05:13:10.392Z,2.45
2023-05-11T05:15:37.141Z,2.25
2023-05-11T05:18:43.118Z,3.15
2023-05-11T05:26:00.766Z,2.58
2023-05-11T05:29:00.868Z,3.58
2023-05-11T05:31:40.049Z,2.40
2023-05-11T05:34:39.815Z,2.50
2023-05-11T05:37:41.679Z,3.17
2023-05-11T05:40:18.900Z,1.88
2023-05-11T05:42:54.162Z,3.75
2023-05-11T05:46:07.917Z,2.17
2023-05-11T05:48:36.712Z,2.88
2023-05-11T05:51:25.859Z,2.65
2023-05-11T05:54:36.436Z,3.40
2023-05-11T05:57:12.261Z,4.35
2023-05-11T05:59:40.561Z,3.00
2023-05-11T06:02:57.182Z,2.80
2023-05-11T06:09:20.911Z,2.72
2023-05-11T06:11:56.323Z,3.42
2023-05-11T06:14:27.339Z,2.67
2023-05-11T06:24:34.763Z,2.65
2023-05-11T06:31:16.613Z,3.10
2023-05-11T06:33:59.259Z,2.20
2023-05-11T06:40:16.820Z,2.63
2023-05-11T06:46:39.297Z,2.30
2023-05-11T06:49:05.940Z,2.30
2023-05-11T06:51:45.374Z,2.40
2023-05-11T06:54:12.794Z,3.00
2023-05-11T06:56:40.098Z,2.53
2023-05-11T06:59:29.604Z,3.17
2023-05-11T07:02:46.663Z,2.80
2023-05-11T07:09:18.245Z,2.88
2023-05-11T07:11:45.003Z,2.65
2023-05-11T07:17:56.013Z,2.78
2023-05-11T07:21:18.059Z,2.70
2023-05-11T07:23:45.517Z,5.23
2023-05-11T07:26:12.763Z,2.60
2023-05-11T07:28:43.999Z,2.00
2023-05-11T07:31:11.892Z,2.35
2023-05-11T07:33:39.666Z,2.30
2023-05-11T07:36:07.368Z,3.45
2023-05-11T07:38:34.064Z,2.05
2023-05-11T07:41:00.823Z,2.10
2023-05-11T07:43:27.988Z,3.63
2023-05-11T07:53:57.191Z,1.85
2023-05-11T08:00:46.522Z,3.00
2023-05-11T08:03:34.248Z,1.85
2023-05-11T08:06:21.574Z,2.00
2023-05-11T08:09:10.749Z,1.67
2023-05-11T08:12:00.023Z,2.83
2023-05-11T08:22:51.293Z,1.75
2023-05-11T08:25:20.357Z,1.40
2023-05-11T08:27:48.509Z,2.17
2023-05-11T08:30:18.631Z,1.63
2023-05-11T08:32:57.674Z,1.60
2023-05-11T08:36:17.338Z,1.35
2023-05-11T08:39:47.598Z,1.30
2023-05-11T08:42:19.080Z,1.33
2023-05-11T08:44:48.127Z,1.23
2023-05-11T08:52:37.867Z,1.10
2023-05-11T08:55:07.752Z,1.38
2023-05-11T08:57:34.604Z,1.25
2023-05-11T09:00:03.152Z,0.82
2023-05-11T09:02:31.079Z,1.10
2023-05-11T09:04:59.478Z,1.00
2023-05-11T09:07:28.516Z,0.77
2023-05-11T09:09:55.159Z,0.88
2023-05-11T09:12:26.324Z,1.10
2023-05-11T09:15:01.892Z,0.90
2023-05-11T09:17:28.851Z,0.90
2023-05-11T09:20:06.524Z,0.80
2023-05-11T09:22:36.229Z,1.35
2023-05-11T09:25:04.086Z,0.98
2023-05-11T09:27:31.307Z,1.35
2023-05-11T09:30:12.170Z,1.25
2023-05-11T09:33:01.348Z,1.00
2023-05-11T09:35:35.246Z,0.70
2023-05-11T09:38:12.941Z,1.08
2023-05-11T09:40:44.527Z,1.00
2023-05-11T09:43:24.515Z,0.60
2023-05-11T09:45:57.572Z,0.60
2023-05-11T09:48:32.840Z,1.05
2023-05-11T09:51:05.317Z,0.80
2023-05-11T09:53:36.545Z,1.05
2023-05-11T09:56:04.339Z,2.92
2023-05-11T09:58:56.032Z,0.85
2023-05-11T10:01:31.197Z,0.90
2023-05-11T10:04:13.338Z,0.57
2023-05-11T10:06:58.492Z,0.90
2023-05-11T10:09:33.023Z,1.00
2023-05-11T10:12:01.796Z,0.77
2023-05-11T10:14:30.445Z,0.50
2023-05-11T10:16:58.468Z,0.50
2023-05-11T10:19:25.495Z,0.85
2023-05-11T10:21:53.523Z,0.65
2023-05-11T10:24:23.229Z,0.50
2023-05-11T10:26:50.824Z,1.27
2023-05-11T10:29:19.472Z,1.05
2023-05-11T10:31:48.603Z,1.10
2023-05-11T10:34:16.585Z,0.90
2023-05-11T10:36:46.295Z,0.80
2023-05-11T10:39:12.892Z,0.98
2023-05-11T10:41:57.373Z,1.10
2023-05-11T10:45:05.884Z,0.80
2023-05-11T10:47:44.556Z,0.80
2023-05-11T10:50:55.081Z,1.00
2023-05-11T10:54:03.505Z,0.98
2023-05-11T10:56:57.268Z,0.90
2023-05-11T10:59:43.938Z,0.70
2023-05-11T11:02:11.092Z,0.90
2023-05-11T11:04:46.646Z,1.30
2023-05-11T11:07:19.348Z,1.23
2023-05-11T11:09:54.458Z,1.00
2023-05-11T11:12:22.476Z,0.50
2023-05-11T11:14:56.032Z,0.60
2023-05-11T11:17:29.045Z,0.52
2023-05-11T11:19:55.828Z,0.47
2023-05-11T11:22:38.739Z,0.40
2023-05-11T11:25:08.147Z,0.52
2023-05-11T11:27:40.575Z,0.55
2023-05-11T11:30:28.925Z,0.80
2023-05-11T11:33:08.012Z,1.02
2023-05-11T11:35:44.856Z,1.48
2023-05-11T11:38:20.624Z,0.90
2023-05-11T11:48:35.897Z,1.60
2023-05-11T11:51:06.696Z,3.25
2023-05-11T11:53:36.504Z,0.82
2023-05-11T11:56:29.224Z,0.75
2023-05-11T12:02:05.647Z,0.82
2023-05-11T12:04:58.135Z,0.65
2023-05-11T12:07:53.121Z,0.77
2023-05-11T12:10:22.141Z,0.70
2023-05-11T12:12:51.013Z,0.60
2023-05-11T12:15:32.321Z,0.65
2023-05-11T12:18:00.219Z,0.73
2023-05-11T12:20:26.876Z,0.52
2023-05-11T12:22:53.689Z,1.38
2023-05-11T12:25:21.914Z,1.05
2023-05-11T12:28:02.168Z,1.25
2023-05-11T12:30:31.755Z,0.80
2023-05-11T12:33:01.151Z,0.80
2023-05-11T12:35:30.101Z,0.68
2023-05-11T12:37:59.594Z,0.20
2023-05-11T12:40:27.115Z,0.30
2023-05-11T12:42:59.710Z,0.40
2023-05-11T12:45:29.441Z,0.57
2023-05-11T12:47:58.373Z,0.55
2023-05-11T12:50:25.062Z,0.45
2023-05-11T12:52:52.747Z,0.80
2023-05-11T12:55:29.502Z,0.93
2023-05-11T12:58:09.261Z,0.52
2023-05-11T13:00:57.899Z,0.93
2023-05-11T13:03:47.506Z,0.70
2023-05-11T13:06:18.886Z,1.00
2023-05-11T13:12:54.455Z,0.50
2023-05-11T13:15:51.914Z,1.15
2023-05-11T13:18:19.728Z,2.30
2023-05-11T13:20:46.606Z,1.85
2023-05-11T13:23:15.289Z,1.02
2023-05-11T13:25:51.501Z,0.98
2023-05-11T13:28:24.491Z,0.82
2023-05-11T13:31:00.335Z,0.60
2023-05-11T13:33:27.365Z,0.40
2023-05-11T13:41:17.906Z,0.50
2023-05-11T13:44:05.077Z,0.40
2023-05-11T13:46:31.690Z,0.50
2023-05-11T13:49:00.391Z,0.43
2023-05-11T13:51:27.705Z,0.30
2023-05-11T13:53:54.612Z,0.30
2023-05-11T13:56:22.150Z,0.82
2023-05-11T13:58:48.888Z,0.40
2023-05-11T14:01:18.569Z,0.30
2023-05-11T14:03:45.254Z,0.30
2023-05-11T14:06:12.022Z,0.30
2023-05-11T14:08:38.627Z,0.57
2023-05-11T14:11:08.366Z,0.73
2023-05-11T14:13:34.971Z,0.30
2023-05-11T14:16:01.646Z,0.40
2023-05-11T14:18:31.339Z,0.30
2023-05-11T14:20:58.069Z,0.70
2023-05-11T14:23:24.700Z,0.70
2023-05-11T14:25:51.292Z,1.95
2023-05-11T14:28:18.029Z,0.90
2023-05-11T14:30:44.723Z,0.40
2023-05-11T14:33:11.363Z,1.02
2023-05-11T14:35:39.730Z,0.60
2023-05-11T14:38:37.136Z,0.60
2023-05-11T14:41:05.949Z,0.40
2023-05-11T14:43:32.596Z,0.90
2023-05-11T14:45:59.415Z,0.32
2023-05-11T14:48:26.090Z,0.32
2023-05-11T14:50:52.773Z,0.93
2023-05-11T14:53:19.767Z,0.70
2023-05-11T14:56:07.300Z,1.17
2023-05-11T14:58:33.984Z,0.57
2023-05-11T15:01:00.900Z,0.38
2023-05-11T15:03:28.962Z,1.92
2023-05-11T15:05:55.576Z,1.23
2023-05-11T15:08:29.762Z,1.15
2023-05-11T15:10:57.862Z,1.45
2023-05-11T15:13:25.626Z,1.30
2023-05-11T15:15:52.422Z,1.35
2023-05-11T15:18:19.241Z,0.98
2023-05-11T15:20:46.719Z,1.20
2023-05-11T15:23:16.943Z,1.25
2023-05-11T15:25:44.967Z,0.75
2023-05-11T15:28:11.947Z,0.40
2023-05-11T15:30:38.762Z,0.45
2023-05-11T15:33:05.635Z,0.47
2023-05-11T15:35:34.792Z,0.47
2023-05-11T15:38:01.782Z,0.63
2023-05-11T15:40:31.541Z,0.47
2023-05-11T15:42:58.822Z,0.88
2023-05-11T15:45:26.281Z,0.50
2023-05-11T15:47:56.222Z,0.40
2023-05-11T15:50:23.000Z,0.60
2023-05-11T15:53:09.965Z,0.85
2023-05-11T15:55:57.059Z,1.00
2023-05-11T15:58:43.996Z,0.90
2023-05-11T16:01:10.737Z,0.80
2023-05-11T16:03:37.855Z,0.90
2023-05-11T16:06:05.005Z,1.33
2023-05-11T16:16:35.830Z,1.02
2023-05-11T16:19:22.800Z,0.75
2023-05-11T16:36:09.621Z,0.60
2023-05-11T16:50:25.173Z,0.60
2023-05-11T16:53:15.419Z,0.70
2023-05-11T16:55:42.077Z,0.70
2023-05-11T16:58:09.871Z,0.70
2023-05-11T17:00:36.637Z,0.50
2023-05-11T17:03:03.576Z,1.25
2023-05-11T17:05:30.424Z,0.82
2023-05-11T17:07:57.028Z,1.48
2023-05-11T17:15:13.280Z,1.17
2023-05-11T17:18:00.243Z,0.60
2023-05-11T17:20:26.926Z,1.33
2023-05-11T17:22:53.528Z,2.03
2023-05-11T17:25:22.639Z,0.70
2023-05-11T17:27:51.825Z,2.00
2023-05-11T17:30:18.772Z,1.65
2023-05-11T17:32:48.742Z,1.55
2023-05-11T17:35:15.604Z,1.88
2023-05-11T17:37:42.305Z,1.45
2023-05-11T17:43:52.100Z,1.02
2023-05-11T17:46:19.083Z,1.35
2023-05-11T17:48:45.792Z,1.95
2023-05-11T17:51:13.470Z,1.08
2023-05-11T17:53:42.869Z,1.50
2023-05-11T17:56:11.827Z,1.27
2023-05-11T17:58:43.186Z,1.48
2023-05-11T18:01:13.907Z,1.52
2023-05-11T18:03:41.240Z,1.40
2023-05-11T18:06:08.583Z,1.08
2023-05-11T18:08:36.747Z,1.75
2023-05-11T18:11:07.750Z,1.95
2023-05-11T18:13:35.696Z,1.87
2023-05-11T18:16:02.456Z,1.40
2023-05-11T18:18:29.153Z,1.75
2023-05-11T18:21:34.039Z,1.92
2023-05-11T18:36:04.690Z,3.30
2023-05-11T18:38:51.683Z,2.25
2023-05-11T18:41:38.603Z,2.00
2023-05-11T18:44:05.432Z,3.22
2023-05-11T18:50:23.425Z,1.40
2023-05-11T18:52:50.073Z,1.38
2023-05-11T18:55:19.497Z,1.88
2023-05-11T18:57:46.128Z,2.25
2023-05-11T19:05:00.798Z,2.10
2023-05-11T19:07:28.139Z,3.05
2023-05-11T19:13:35.730Z,2.45
2023-05-11T19:16:04.476Z,2.17
2023-05-11T19:18:32.370Z,3.95
2023-05-11T19:20:59.077Z,3.08
2023-05-11T19:23:25.848Z,2.50
2023-05-11T19:25:52.488Z,2.33
2023-05-11T19:28:21.726Z,2.25
2023-05-11T19:30:48.358Z,2.17
2023-05-11T19:33:15.215Z,2.13
2023-05-11T19:35:41.911Z,1.50
2023-05-11T19:38:28.940Z,2.45
2023-05-11T19:41:17.447Z,2.25
2023-05-11T19:44:04.503Z,2.92
2023-05-11T19:46:51.526Z,2.10
2023-05-11T19:53:25.061Z,4.53
2023-05-11T19:55:51.675Z,3.00
2023-05-11T19:58:18.657Z,3.13
2023-05-11T20:00:45.890Z,2.63
2023-05-11T20:03:12.668Z,2.45
2023-05-11T20:05:39.631Z,2.95
2023-05-11T20:08:06.317Z,3.20
2023-05-11T20:14:40.850Z,2.70
2023-05-11T20:22:05.352Z,2.47
2023-05-11T20:24:52.257Z,3.03
2023-05-11T20:27:39.235Z,3.35
2023-05-11T20:30:26.205Z,3.35
2023-05-11T20:36:03.408Z,3.55
2023-05-11T20:38:53.215Z,3.50
2023-05-11T20:41:40.163Z,2.72
2023-05-11T20:44:27.165Z,3.30
2023-05-11T20:47:14.068Z,3.13
2023-05-11T20:50:01.187Z,4.15
2023-05-11T20:52:27.957Z,3.58
2023-05-11T20:54:54.685Z,2.83
2023-05-11T20:57:22.102Z,3.28
2023-05-11T21:02:18.588Z,3.33
2023-05-11T21:04:46.666Z,3.20
2023-05-11T21:07:15.691Z,3.17
2023-05-11T21:09:44.475Z,2.88
2023-05-11T21:12:11.186Z,3.28
2023-05-11T21:18:51.907Z,2.78
2023-05-11T21:21:18.916Z,2.97
2023-05-11T21:23:45.572Z,2.75
2023-05-11T21:26:12.168Z,2.72
2023-05-11T21:32:31.224Z,2.10
2023-05-11T21:34:57.849Z,2.75
2023-05-11T21:37:28.220Z,2.92
2023-05-11T21:39:54.811Z,2.55
2023-05-11T21:42:21.873Z,2.03
2023-05-11T21:44:48.581Z,2.67
2023-05-11T21:47:15.494Z,2.05
2023-05-11T21:49:42.130Z,2.15
2023-05-11T21:52:09.131Z,2.63
2023-05-11T21:54:35.826Z,2.25
2023-05-11T21:57:03.734Z,2.17
2023-05-11T21:59:30.452Z,2.33
2023-05-11T22:01:57.256Z,2.17
2023-05-11T22:04:24.141Z,1.70
2023-05-11T22:06:50.821Z,2.30
2023-05-11T22:17:19.261Z,3.08
2023-05-11T22:24:27.378Z,2.50
2023-05-11T22:27:18.058Z,2.38
2023-05-11T22:30:06.080Z,2.38
2023-05-11T22:32:53.253Z,2.05
2023-05-11T22:35:40.378Z,2.45
2023-05-11T22:38:27.437Z,3.38
2023-05-11T22:41:14.510Z,2.50
2023-05-11T22:44:01.510Z,2.80
2023-05-11T22:46:52.142Z,3.78
2023-05-11T22:49:39.040Z,3.10
2023-05-11T22:56:38.229Z,2.78
2023-05-11T22:59:08.844Z,6.75
2023-05-11T23:01:35.624Z,3.22
2023-05-11T23:04:02.806Z,3.75
2023-05-11T23:06:29.420Z,3.00
2023-05-11T23:08:56.035Z,2.95
2023-05-11T23:11:25.742Z,3.53
2023-05-11T23:13:52.359Z,3.65
2023-05-11T23:16:19.636Z,2.40
2023-05-11T23:18:46.466Z,2.75
2023-05-11T23:21:13.195Z,3.00
2023-05-11T23:23:42.952Z,2.92
2023-05-11T23:26:10.309Z,2.85
2023-05-11T23:28:38.100Z,3.67
2023-05-11T23:31:05.161Z,3.15
2023-05-11T23:33:32.787Z,3.25
2023-05-11T23:40:49.597Z,3.60
2023-05-11T23:43:24.936Z,3.05
2023-05-11T23:45:57.559Z,3.80
2023-05-11T23:48:24.423Z,3.85
2023-05-11T23:54:40.715Z,3.50
2023-05-11T23:57:11.861Z,3.53
